createdAt,value
2019-04-20T00:01:40.780Z,20.97
2019-04-20T00:04:17.048Z,20.57
2019-04-20T00:06:46.724Z,17.00
2019-04-20T00:09:20.580Z,19.90
2019-04-20T00:11:53.530Z,21.80
2019-04-20T00:14:19.701Z,18.20
2019-04-20T00:16:48.255Z,19.20
2019-04-20T00:19:26.113Z,23.50
2019-04-20T00:21:58.573Z,18.63
2019-04-20T00:24:31.030Z,20.43
2019-04-20T00:27:22.432Z,22.27
2019-04-20T00:29:45.977Z,18.83
2019-04-20T00:32:12.545Z,18.97
2019-04-20T00:34:37.239Z,22.43
2019-04-20T00:37:05.190Z,21.53
2019-04-20T00:39:36.013Z,23.80
2019-04-20T00:42:10.532Z,20.03
2019-04-20T00:44:39.557Z,22.90
2019-04-20T00:47:19.998Z,23.30
2019-04-20T00:49:52.732Z,20.30
2019-04-20T00:52:27.656Z,20.93
2019-04-20T00:54:43.176Z,21.97
2019-04-20T00:57:23.467Z,23.57
2019-04-20T01:00:04.930Z,21.87
2019-04-20T01:02:29.944Z,23.17
2019-04-20T01:05:04.401Z,25.17
2019-04-20T01:07:32.065Z,27.13
2019-04-20T01:10:06.882Z,26.30
2019-04-20T01:12:39.212Z,27.00
2019-04-20T01:15:16.877Z,25.47
2019-04-20T01:17:42.934Z,24.97
2019-04-20T01:20:13.346Z,25.70
2019-04-20T01:22:51.460Z,24.53
2019-04-20T01:25:22.108Z,23.63
2019-04-20T01:28:05.452Z,21.70
2019-04-20T01:30:25.276Z,26.47
2019-04-20T01:33:03.921Z,26.73
2019-04-20T01:35:40.831Z,24.27
2019-04-20T01:38:12.565Z,27.10
2019-04-20T01:40:25.364Z,22.13
2019-04-20T01:42:55.434Z,23.40
2019-04-20T01:45:29.303Z,27.60
2019-04-20T01:47:59.567Z,26.63
2019-04-20T01:50:33.282Z,22.83
2019-04-20T01:53:10.122Z,28.23
2019-04-20T01:55:50.734Z,21.30
2019-04-20T01:58:23.728Z,27.13
2019-04-20T02:00:44.964Z,26.90
2019-04-20T02:03:38.377Z,22.50
2019-04-20T02:08:42.166Z,24.80
2019-04-20T02:11:18.634Z,24.03
2019-04-20T02:13:50.983Z,27.60
2019-04-20T02:16:22.606Z,26.77
2019-04-20T02:19:24.236Z,27.40
2019-04-20T02:21:54.215Z,30.70
2019-04-20T02:24:10.918Z,26.40
2019-04-20T02:26:40.966Z,28.43
2019-04-20T02:29:35.120Z,28.20
2019-04-20T02:40:09.346Z,29.00
2019-04-20T02:45:17.330Z,28.60
2019-04-20T02:50:15.159Z,30.67
2019-04-20T02:52:49.210Z,27.20
2019-04-20T02:55:14.851Z,28.43
2019-04-20T02:57:55.322Z,27.60
2019-04-20T03:00:13.768Z,26.33
2019-04-20T03:02:32.240Z,29.40
2019-04-20T03:05:02.447Z,27.47
2019-04-20T03:07:36.816Z,31.43
2019-04-20T03:10:12.350Z,26.27
2019-04-20T03:12:46.209Z,25.77
2019-04-20T03:15:09.520Z,25.73
2019-04-20T03:17:44.435Z,28.73
2019-04-20T03:20:19.920Z,29.07
2019-04-20T03:23:11.176Z,27.73
2019-04-20T03:25:24.164Z,28.30
2019-04-20T03:27:59.614Z,26.87
2019-04-20T03:31:15.673Z,28.37
2019-04-20T03:33:23.820Z,26.47
2019-04-20T03:35:43.418Z,26.63
2019-04-20T03:38:04.619Z,26.30
2019-04-20T03:40:35.079Z,31.47
2019-04-20T03:42:50.620Z,27.03
2019-04-20T03:45:23.063Z,30.50
2019-04-20T03:48:04.235Z,28.67
2019-04-20T03:50:46.790Z,27.17
2019-04-20T03:53:19.910Z,28.17
2019-04-20T03:56:00.683Z,26.77
2019-04-20T03:58:34.474Z,29.13
2019-04-20T04:01:22.728Z,27.07
2019-04-20T04:03:58.784Z,27.17
2019-04-20T04:06:19.366Z,26.80
2019-04-20T04:08:53.136Z,25.30
2019-04-20T04:11:26.141Z,28.97
2019-04-20T04:13:41.914Z,24.70
2019-04-20T04:16:15.022Z,24.67
2019-04-20T04:18:47.348Z,26.97
2019-04-20T04:21:21.760Z,25.80
2019-04-20T04:24:02.173Z,28.23
2019-04-20T04:26:34.153Z,26.63
2019-04-20T04:29:16.719Z,25.23
2019-04-20T04:31:53.504Z,27.93
2019-04-20T04:34:10.761Z,27.70
2019-04-20T04:36:46.472Z,26.73
2019-04-20T04:39:19.272Z,28.33
2019-04-20T04:41:55.909Z,25.33
2019-04-20T04:44:11.162Z,25.93
2019-04-20T04:46:32.982Z,26.83
2019-04-20T04:49:09.593Z,29.07
2019-04-20T04:51:42.411Z,27.40
2019-04-20T04:54:13.896Z,26.27
2019-04-20T04:56:35.551Z,25.87
2019-04-20T04:59:05.285Z,25.67
2019-04-20T05:01:37.793Z,26.63
2019-04-20T05:04:24.815Z,26.17
2019-04-20T05:06:54.744Z,24.43
2019-04-20T05:09:14.855Z,24.87
2019-04-20T05:11:42.746Z,24.13
2019-04-20T05:14:19.334Z,23.83
2019-04-20T05:16:58.327Z,23.20
2019-04-20T05:19:38.490Z,22.17
2019-04-20T05:22:11.077Z,20.33
2019-04-20T05:24:48.127Z,21.90
2019-04-20T05:27:34.442Z,23.10
2019-04-20T05:29:59.171Z,21.33
2019-04-20T05:32:51.282Z,23.73
2019-04-20T05:35:31.196Z,22.10
2019-04-20T05:38:06.822Z,23.47
2019-04-20T05:40:35.489Z,19.67
2019-04-20T05:43:05.895Z,21.10
2019-04-20T05:45:35.370Z,20.03
2019-04-20T05:48:07.476Z,23.40
2019-04-20T05:50:45.297Z,21.17
2019-04-20T05:53:14.766Z,22.00
2019-04-20T05:55:43.013Z,22.33
2019-04-20T05:58:17.899Z,24.70
2019-04-20T06:00:55.326Z,24.63
2019-04-20T06:03:20.294Z,17.93
2019-04-20T06:05:57.875Z,22.30
2019-04-20T06:08:32.040Z,20.50
2019-04-20T06:10:58.626Z,22.70
2019-04-20T06:13:23.952Z,19.97
2019-04-20T06:15:59.842Z,19.43
2019-04-20T06:18:40.198Z,21.33
2019-04-20T06:21:33.825Z,24.50
2019-04-20T06:23:56.652Z,22.07
2019-04-20T06:26:43.480Z,18.23
2019-04-20T06:28:50.832Z,19.87
2019-04-20T06:31:32.468Z,21.63
2019-04-20T06:36:53.418Z,16.97
2019-04-20T06:39:37.284Z,21.27
2019-04-20T06:49:35.397Z,19.12
2019-04-20T06:52:15.348Z,15.30
2019-04-20T06:55:00.276Z,20.50
2019-04-20T06:57:35.682Z,17.35
2019-04-20T07:00:10.335Z,17.02
2019-04-20T07:02:35.918Z,15.80
2019-04-20T07:05:07.010Z,17.65
2019-04-20T07:07:35.766Z,19.98
2019-04-20T07:10:13.324Z,14.95
2019-04-20T07:12:39.601Z,20.85
2019-04-20T07:15:00.103Z,15.98
2019-04-20T07:17:53.301Z,17.87
2019-04-20T07:20:18.516Z,18.62
2019-04-20T07:23:02.201Z,18.98
2019-04-20T07:25:33.175Z,14.70
2019-04-20T07:27:57.874Z,19.23
2019-04-20T07:30:30.597Z,18.42
2019-04-20T07:33:08.761Z,16.32
2019-04-20T07:35:35.850Z,15.40
2019-04-20T07:38:23.407Z,16.40
2019-04-20T07:40:37.519Z,15.20
2019-04-20T07:43:04.647Z,15.38
2019-04-20T07:45:43.258Z,16.00
2019-04-20T07:50:34.717Z,16.97
2019-04-20T07:53:10.922Z,16.35
2019-04-20T07:55:50.805Z,16.37
2019-04-20T07:58:08.334Z,16.25
2019-04-20T08:00:59.742Z,17.55
2019-04-20T08:03:29.624Z,17.02
2019-04-20T08:06:01.108Z,16.57
2019-04-20T08:08:32.574Z,17.60
2019-04-20T08:11:10.952Z,14.13
2019-04-20T08:13:51.366Z,15.68
2019-04-20T08:16:22.891Z,19.90
2019-04-20T08:18:58.563Z,19.17
2019-04-20T08:21:22.871Z,14.77
2019-04-20T08:23:51.392Z,19.65
2019-04-20T08:26:10.833Z,16.73
2019-04-20T08:28:49.688Z,15.98
2019-04-20T08:31:32.294Z,14.63
2019-04-20T08:34:31.283Z,15.50
2019-04-20T08:36:47.727Z,17.05
2019-04-20T08:41:50.363Z,15.78
2019-04-20T08:44:42.871Z,18.82
2019-04-20T08:47:01.343Z,14.00
2019-04-20T08:49:25.112Z,15.48
2019-04-20T08:52:05.966Z,15.78
2019-04-20T08:54:23.273Z,15.72
2019-04-20T08:56:43.475Z,15.90
2019-04-20T08:59:06.729Z,20.45
2019-04-20T09:01:38.725Z,13.45
2019-04-20T09:04:15.365Z,13.45
2019-04-20T09:06:54.534Z,17.12
2019-04-20T09:09:37.805Z,17.90
2019-04-20T09:12:03.285Z,18.70
2019-04-20T09:14:21.286Z,17.48
2019-04-20T09:17:01.526Z,14.00
2019-04-20T09:19:34.648Z,20.27
2019-04-20T09:22:14.754Z,14.43
2019-04-20T09:24:53.785Z,19.50
2019-04-20T09:27:14.605Z,16.48
2019-04-20T09:29:44.875Z,16.52
2019-04-20T09:32:23.158Z,19.55
2019-04-20T09:35:01.101Z,21.42
2019-04-20T09:37:47.196Z,16.80
2019-04-20T09:40:20.217Z,13.85
2019-04-20T09:42:40.541Z,13.95
2019-04-20T09:45:23.249Z,17.87
2019-04-20T09:47:49.645Z,18.32
2019-04-20T09:50:33.709Z,13.75
2019-04-20T09:53:04.080Z,12.85
2019-04-20T09:55:31.261Z,19.80
2019-04-20T09:58:07.261Z,10.88
2019-04-20T10:00:42.177Z,11.78
2019-04-20T10:02:58.511Z,14.65
2019-04-20T10:05:29.593Z,13.78
2019-04-20T10:08:03.359Z,16.23
2019-04-20T10:10:38.018Z,19.57
2019-04-20T10:13:02.523Z,14.87
2019-04-20T10:15:33.021Z,12.15
2019-04-20T10:18:03.717Z,11.22
2019-04-20T10:20:36.247Z,14.43
2019-04-20T10:23:04.802Z,11.93
2019-04-20T10:25:34.710Z,13.62
2019-04-20T10:28:05.544Z,15.63
2019-04-20T10:30:35.119Z,16.12
2019-04-20T10:33:05.756Z,14.93
2019-04-20T10:35:35.890Z,12.33
2019-04-20T10:38:09.992Z,13.65
2019-04-20T10:40:50.763Z,11.90
2019-04-20T10:43:12.044Z,14.23
2019-04-20T10:45:41.873Z,32.70
2019-04-20T10:48:11.454Z,14.13
2019-04-20T10:50:41.345Z,13.62
2019-04-20T10:53:12.123Z,15.45
2019-04-20T10:55:43.159Z,13.93
2019-04-20T10:58:13.618Z,27.75
2019-04-20T11:00:46.134Z,13.75
2019-04-20T11:03:17.775Z,14.58
2019-04-20T11:05:48.928Z,21.02
2019-04-20T11:08:20.216Z,13.32
2019-04-20T11:11:00.297Z,17.98
2019-04-20T11:13:21.446Z,14.35
2019-04-20T11:15:52.553Z,13.55
2019-04-20T11:18:22.165Z,15.65
2019-04-20T11:20:51.678Z,12.50
2019-04-20T11:23:22.381Z,12.53
2019-04-20T11:25:52.525Z,13.15
2019-04-20T11:28:22.246Z,13.50
2019-04-20T11:30:52.383Z,14.47
2019-04-20T11:33:22.395Z,12.82
2019-04-20T11:35:51.924Z,16.97
2019-04-20T11:38:22.021Z,12.53
2019-04-20T11:41:04.109Z,14.63
2019-04-20T11:43:23.960Z,16.45
2019-04-20T11:45:54.420Z,15.35
2019-04-20T11:48:25.368Z,13.43
2019-04-20T11:50:55.806Z,16.30
2019-04-20T11:53:26.932Z,28.95
2019-04-20T11:55:56.669Z,15.00
2019-04-20T11:58:26.231Z,13.15
2019-04-20T12:01:05.100Z,11.73
2019-04-20T12:03:39.004Z,14.03
2019-04-20T12:06:04.687Z,12.43
2019-04-20T12:08:33.301Z,13.45
2019-04-20T12:11:20.451Z,10.43
2019-04-20T12:13:34.815Z,11.10
2019-04-20T12:16:05.650Z,10.90
2019-04-20T12:18:35.903Z,13.45
2019-04-20T12:21:05.482Z,13.83
2019-04-20T12:23:36.200Z,11.35
2019-04-20T12:26:06.801Z,11.65
2019-04-20T12:28:37.821Z,13.45
2019-04-20T12:31:11.849Z,11.03
2019-04-20T12:33:40.063Z,11.30
2019-04-20T12:36:10.440Z,12.20
2019-04-20T12:38:41.308Z,8.85
2019-04-20T12:41:12.570Z,10.00
2019-04-20T12:43:45.569Z,14.70
2019-04-20T12:46:18.284Z,12.58
2019-04-20T12:48:47.403Z,13.18
2019-04-20T12:51:17.530Z,11.70
2019-04-20T12:53:47.097Z,13.10
2019-04-20T12:56:16.984Z,10.85
2019-04-20T12:58:47.357Z,12.20
2019-04-20T13:01:19.346Z,10.90
2019-04-20T13:03:48.244Z,11.68
2019-04-20T13:06:17.768Z,8.38
2019-04-20T13:08:52.314Z,13.18
2019-04-20T13:11:24.634Z,8.70
2019-04-20T13:14:06.369Z,11.40
2019-04-20T13:16:38.673Z,9.33
2019-04-20T13:19:08.933Z,13.48
2019-04-20T13:21:39.134Z,11.15
2019-04-20T13:24:09.315Z,10.23
2019-04-20T13:26:38.986Z,10.32
2019-04-20T13:29:08.762Z,8.70
2019-04-20T13:31:39.996Z,10.72
2019-04-20T13:34:09.713Z,12.03
2019-04-20T13:36:40.063Z,32.78
2019-04-20T13:39:10.234Z,13.93
2019-04-20T13:41:40.040Z,14.65
2019-04-20T13:44:09.607Z,14.13
2019-04-20T13:46:39.070Z,13.60
2019-04-20T13:49:09.273Z,10.88
2019-04-20T13:51:39.181Z,9.23
2019-04-20T13:54:13.896Z,12.73
2019-04-20T13:56:40.205Z,15.13
2019-04-20T13:59:11.966Z,11.40
2019-04-20T14:01:48.781Z,12.18
2019-04-20T14:04:20.977Z,12.70
2019-04-20T14:06:51.286Z,11.22
2019-04-20T14:09:21.327Z,14.43
2019-04-20T14:11:51.750Z,14.30
2019-04-20T14:14:21.516Z,11.60
2019-04-20T14:16:51.053Z,10.43
2019-04-20T14:19:21.076Z,9.50
2019-04-20T14:21:50.575Z,9.88
2019-04-20T14:24:21.333Z,11.55
2019-04-20T14:26:52.601Z,12.37
2019-04-20T14:29:23.061Z,11.83
2019-04-20T14:31:52.747Z,11.18
2019-04-20T14:34:22.670Z,10.85
2019-04-20T14:36:52.993Z,15.50
2019-04-20T14:39:22.569Z,11.55
2019-04-20T14:41:52.347Z,14.35
2019-04-20T14:44:21.868Z,12.45
2019-04-20T14:46:51.658Z,11.80
2019-04-20T14:49:21.282Z,11.93
2019-04-20T14:51:50.736Z,11.43
2019-04-20T14:54:21.344Z,10.90
2019-04-20T14:56:51.685Z,12.85
2019-04-20T14:59:33.686Z,9.13
2019-04-20T15:02:06.386Z,11.53
2019-04-20T15:04:37.077Z,8.88
2019-04-20T15:07:06.994Z,9.48
2019-04-20T15:09:38.483Z,10.80
2019-04-20T15:12:08.825Z,11.50
2019-04-20T15:14:38.735Z,10.30
2019-04-20T15:17:10.966Z,13.30
2019-04-20T15:19:49.487Z,10.03
2019-04-20T15:22:36.863Z,12.88
2019-04-20T15:25:07.617Z,10.58
2019-04-20T15:27:37.472Z,10.58
2019-04-20T15:30:08.757Z,10.75
2019-04-20T15:32:38.966Z,13.95
2019-04-20T15:35:09.090Z,10.13
2019-04-20T15:37:39.513Z,9.80
2019-04-20T15:40:09.160Z,13.60
2019-04-20T15:42:49.345Z,13.75
2019-04-20T15:45:11.353Z,14.95
2019-04-20T15:47:40.978Z,13.15
2019-04-20T15:50:11.819Z,9.18
2019-04-20T15:52:46.785Z,8.65
2019-04-20T15:55:21.599Z,10.40
2019-04-20T15:57:44.808Z,12.13
2019-04-20T16:00:14.602Z,10.48
2019-04-20T16:02:49.496Z,10.60
2019-04-20T16:05:33.263Z,38.78
2019-04-20T16:08:08.748Z,56.55
2019-04-20T16:10:39.197Z,49.85
2019-04-20T16:13:18.196Z,31.60
2019-04-20T16:15:40.451Z,20.80
2019-04-20T16:18:10.320Z,16.17
2019-04-20T16:20:53.627Z,13.72
2019-04-20T16:23:12.347Z,16.10
2019-04-20T16:26:00.083Z,20.52
2019-04-20T16:28:29.883Z,27.22
2019-04-20T16:30:59.439Z,55.10
2019-04-20T16:33:30.266Z,36.05
2019-04-20T16:36:00.621Z,31.73
2019-04-20T16:38:30.643Z,90.07
2019-04-20T16:41:00.318Z,100.20
2019-04-20T16:43:35.717Z,178.93
2019-04-20T16:46:01.495Z,82.62
2019-04-20T16:48:31.247Z,61.95
2019-04-20T16:51:01.155Z,67.70
2019-04-20T16:53:32.927Z,84.47
2019-04-20T16:56:02.899Z,57.27
2019-04-20T16:58:33.779Z,36.10
2019-04-20T17:01:03.531Z,62.40
2019-04-20T17:03:44.175Z,143.45
2019-04-20T17:06:06.308Z,120.00
2019-04-20T17:08:37.075Z,68.92
2019-04-20T17:11:07.774Z,125.25
2019-04-20T17:13:43.862Z,76.87
2019-04-20T17:16:10.026Z,59.50
2019-04-20T17:18:39.638Z,150.90
2019-04-20T17:21:16.624Z,30.85
2019-04-20T17:23:43.380Z,16.67
2019-04-20T17:26:14.685Z,34.20
2019-04-20T17:28:46.929Z,17.57
2019-04-20T17:31:21.885Z,13.80
2019-04-20T17:34:01.477Z,11.45
2019-04-20T17:36:27.790Z,12.10
2019-04-20T17:38:59.740Z,15.72
2019-04-20T17:42:00.339Z,12.35
2019-04-20T17:44:17.701Z,11.25
2019-04-20T17:46:42.428Z,9.30
2019-04-20T17:49:15.990Z,11.80
2019-04-20T17:51:58.177Z,10.35
2019-04-20T17:54:08.448Z,12.90
2019-04-20T17:56:38.394Z,10.57
2019-04-20T17:59:08.208Z,23.70
2019-04-20T18:02:07.755Z,43.87
2019-04-20T18:04:55.929Z,164.00
2019-04-20T18:07:18.246Z,151.80
2019-04-20T18:09:49.240Z,147.03
2019-04-20T18:12:07.538Z,74.97
2019-04-20T18:14:51.686Z,24.10
2019-04-20T18:17:32.123Z,19.13
2019-04-20T18:20:03.384Z,20.70
2019-04-20T18:22:34.100Z,14.40
2019-04-20T18:25:27.421Z,18.13
2019-04-20T18:27:53.186Z,13.37
2019-04-20T18:30:27.454Z,12.80
2019-04-20T18:32:45.390Z,14.17
2019-04-20T18:35:20.304Z,13.23
2019-04-20T18:37:52.477Z,17.60
2019-04-20T18:40:29.101Z,24.03
2019-04-20T18:43:02.825Z,36.47
2019-04-20T18:45:41.097Z,37.40
2019-04-20T18:48:13.029Z,85.63
2019-04-20T18:50:32.605Z,110.27
2019-04-20T18:52:57.936Z,86.47
2019-04-20T18:55:38.787Z,54.90
2019-04-20T18:57:59.381Z,40.17
2019-04-20T19:00:33.740Z,39.23
2019-04-20T19:03:09.711Z,25.10
2019-04-20T19:05:31.695Z,19.97
2019-04-20T19:08:06.223Z,17.57
2019-04-20T19:10:38.088Z,16.63
2019-04-20T19:13:31.718Z,19.53
2019-04-20T19:16:24.772Z,17.63
2019-04-20T19:19:04.336Z,18.97
2019-04-20T19:21:21.556Z,18.80
2019-04-20T19:23:59.957Z,20.07
2019-04-20T19:26:23.823Z,15.47
2019-04-20T19:28:56.260Z,17.47
2019-04-20T19:31:42.623Z,14.33
2019-04-20T19:34:15.355Z,13.53
2019-04-20T19:36:34.897Z,13.07
2019-04-20T19:39:15.112Z,15.87
2019-04-20T19:41:42.063Z,15.23
2019-04-20T19:44:14.793Z,16.47
2019-04-20T19:46:55.210Z,16.23
2019-04-20T19:49:19.322Z,17.80
2019-04-20T19:52:12.132Z,17.80
2019-04-20T19:54:29.956Z,21.00
2019-04-20T19:56:56.307Z,19.77
2019-04-20T19:59:19.814Z,21.87
2019-04-20T20:01:40.054Z,24.43
2019-04-20T20:04:11.521Z,23.03
2019-04-20T20:06:47.110Z,22.67
2019-04-20T20:09:13.392Z,23.90
2019-04-20T20:11:45.015Z,20.13
2019-04-20T20:14:19.555Z,19.23
2019-04-20T20:17:06.705Z,18.97
2019-04-20T20:19:32.402Z,20.13
2019-04-20T20:22:04.763Z,20.20
2019-04-20T20:24:19.993Z,23.30
2019-04-20T20:26:56.342Z,21.20
2019-04-20T20:29:30.540Z,18.10
2019-04-20T20:32:05.097Z,19.10
2019-04-20T20:34:30.919Z,19.67
2019-04-20T20:37:03.035Z,22.07
2019-04-20T20:39:31.694Z,21.50
2019-04-20T20:42:10.714Z,24.67
2019-04-20T20:44:41.186Z,20.87
2019-04-20T20:47:21.743Z,21.90
2019-04-20T20:50:00.067Z,20.90
2019-04-20T20:52:21.850Z,22.27
2019-04-20T20:54:49.572Z,24.83
2019-04-20T20:57:14.832Z,22.03
2019-04-20T20:59:48.210Z,21.57
2019-04-20T21:02:15.819Z,21.83
2019-04-20T21:04:41.816Z,21.47
2019-04-20T21:07:11.255Z,18.13
2019-04-20T21:09:41.842Z,20.73
2019-04-20T21:12:15.986Z,23.23
2019-04-20T21:14:44.230Z,22.47
2019-04-20T21:17:18.324Z,21.90
2019-04-20T21:20:05.378Z,24.27
2019-04-20T21:22:27.285Z,23.47
2019-04-20T21:24:51.093Z,18.00
2019-04-20T21:27:22.203Z,23.03
2019-04-20T21:29:55.195Z,19.80
2019-04-20T21:32:51.632Z,23.83
2019-04-20T21:35:19.835Z,21.57
2019-04-20T21:37:56.940Z,23.23
2019-04-20T21:40:27.961Z,18.93
2019-04-20T21:42:58.796Z,17.37
2019-04-20T21:45:28.636Z,18.77
2019-04-20T21:47:54.580Z,19.10
2019-04-20T21:50:42.734Z,17.83
2019-04-20T21:53:06.034Z,16.93
2019-04-20T21:55:27.925Z,21.40
2019-04-20T21:58:00.439Z,20.50
2019-04-20T22:00:50.467Z,17.80
2019-04-20T22:03:20.307Z,21.93
2019-04-20T22:05:52.572Z,18.40
2019-04-20T22:08:24.242Z,19.07
2019-04-20T22:10:55.357Z,19.53
2019-04-20T22:13:31.137Z,22.03
2019-04-20T22:16:03.144Z,19.33
2019-04-20T22:18:28.712Z,21.00
2019-04-20T22:21:09.461Z,20.47
2019-04-20T22:23:47.557Z,19.80
2019-04-20T22:26:11.880Z,19.10
2019-04-20T22:28:32.054Z,20.50
2019-04-20T22:31:02.194Z,18.83
2019-04-20T22:33:40.982Z,15.67
2019-04-20T22:36:10.818Z,17.53
2019-04-20T22:38:59.809Z,18.80
2019-04-20T22:41:28.086Z,13.67
2019-04-20T22:44:02.744Z,17.57
2019-04-20T22:46:33.361Z,16.03
2019-04-20T22:49:19.136Z,15.57
2019-04-20T22:51:44.822Z,19.00
2019-04-20T22:54:16.940Z,18.80
2019-04-20T22:56:46.959Z,18.20
2019-04-20T22:59:12.794Z,19.47
2019-04-20T23:01:44.436Z,18.60
2019-04-20T23:04:08.742Z,19.07
2019-04-20T23:06:43.955Z,19.03
2019-04-20T23:09:13.282Z,21.57
2019-04-20T23:11:42.333Z,20.33
2019-04-20T23:14:11.905Z,18.00
2019-04-20T23:16:45.440Z,21.97
2019-04-20T23:19:14.156Z,23.17
2019-04-20T23:21:48.672Z,24.20
2019-04-20T23:24:16.713Z,20.87
2019-04-20T23:26:47.635Z,25.80
2019-04-20T23:29:21.402Z,23.87
2019-04-20T23:31:55.345Z,22.40
2019-04-20T23:34:24.717Z,22.37
2019-04-20T23:36:52.568Z,23.80
2019-04-20T23:39:24.706Z,19.70
2019-04-20T23:41:59.582Z,23.63
2019-04-20T23:44:29.320Z,21.73
2019-04-20T23:47:11.128Z,22.63
2019-04-20T23:49:54.175Z,24.13
2019-04-20T23:52:32.583Z,24.10
2019-04-20T23:54:49.064Z,23.80
2019-04-20T23:57:11.554Z,23.80
2019-04-20T23:59:44.741Z,24.70
